Time;durP1;ratioP1;P1;durP2;ratioP2;P2;SDS_P1;SDS_P2;PMS_P1;PMS_P2;Temp;Humidity;BMP_temperature;BMP_pressure;BME280_temperature;BME280_humidity;BME280_pressure;Samples;Min_cycle;Max_cycle;Signal;HPM_P1;HPM_P2
2022/06/24 00:00:48;;;;;;;1.88;0.90;;;;;;;20.68;73.38;97910.13;4120471;28;20202;-58
2022/06/24 00:02:50;;;;;;;5.20;1.38;;;;;;;20.74;73.56;97919.91;4109991;28;20242;-59
2022/06/24 00:04:54;;;;;;;6.50;1.25;;;;;;;20.58;74.22;97921.59;4124068;28;20279;-58
2022/06/24 00:06:57;;;;;;;2.67;0.95;;;;;;;20.47;74.10;97921.13;4139065;28;20217;-58
2022/06/24 00:08:59;;;;;;;2.78;1.23;;;;;;;20.15;75.02;97923.56;4136834;28;20212;-59
2022/06/24 00:11:11;;;;;;;4.93;1.45;;;;;;;19.89;76.08;97915.16;4137773;28;20734;-59
2022/06/24 00:13:13;;;;;;;2.53;0.90;;;;;;;19.82;76.87;97906.50;4115714;28;20217;-58
2022/06/24 00:15:23;;;;;;;3.80;1.40;;;;;;;19.83;76.53;97898.97;4139825;28;20272;-58
2022/06/24 00:17:29;;;;;;;2.17;1.00;;;;;;;19.93;76.02;97898.66;4124634;28;21007;-58
2022/06/24 00:19:39;;;;;;;5.05;1.08;;;;;;;20.02;75.59;97905.88;4117499;28;20213;-58
2022/06/24 00:21:41;;;;;;;3.97;1.00;;;;;;;19.96;76.35;97909.13;4107787;28;20241;-59
2022/06/24 00:23:42;;;;;;;2.78;1.58;;;;;;;20.06;76.22;97908.84;4120762;28;20287;-58
2022/06/24 00:25:46;;;;;;;2.22;1.10;;;;;;;19.98;76.96;97917.97;4124851;28;20615;-59
2022/06/24 00:28:10;;;;;;;5.30;1.15;;;;;;;19.91;76.92;97928.75;4124380;28;20214;-58
2022/06/24 00:30:13;;;;;;;3.53;1.10;;;;;;;19.88;77.20;97929.38;4126014;28;20196;-58
2022/06/24 00:32:15;;;;;;;4.78;1.25;;;;;;;19.74;77.87;97934.25;4124393;28;20253;-58
2022/06/24 00:34:22;;;;;;;2.58;1.23;;;;;;;19.69;77.79;97937.16;4141416;28;20205;-58
2022/06/24 00:36:24;;;;;;;4.30;2.00;;;;;;;19.39;78.87;97926.97;4141492;28;20200;-59
2022/06/24 00:38:31;;;;;;;2.53;1.08;;;;;;;19.39;79.13;97935.28;4125747;28;20233;-59
2022/06/24 00:40:34;;;;;;;2.85;1.30;;;;;;;19.32;79.69;97937.72;4138107;28;20209;-59
2022/06/24 00:42:39;;;;;;;18.10;1.70;;;;;;;19.20;80.31;97934.72;4106934;28;20704;-59
2022/06/24 00:45:02;;;;;;;4.90;1.90;;;;;;;19.41;79.20;97936.59;4120512;28;20234;-59
2022/06/24 00:47:05;;;;;;;5.82;1.45;;;;;;;19.55;78.78;97942.03;4120169;28;20207;-59
2022/06/24 00:49:07;;;;;;;1.90;1.17;;;;;;;19.14;80.88;97947.88;4122985;28;20680;-58
2022/06/24 00:51:09;;;;;;;7.65;1.52;;;;;;;19.18;80.68;97931.41;4125073;28;20683;-59
2022/06/24 00:53:11;;;;;;;4.50;1.35;;;;;;;19.26;80.30;97922.34;4120866;28;20215;-59
2022/06/24 00:55:21;;;;;;;3.92;1.20;;;;;;;19.41;79.51;97927.44;4130357;28;20283;-59
2022/06/24 00:57:22;;;;;;;3.10;1.35;;;;;;;19.47;79.50;97945.59;4140807;28;20232;-59
2022/06/24 00:59:25;;;;;;;3.05;1.20;;;;;;;19.36;80.45;97963.66;4117113;28;20210;-59
2022/06/24 01:01:29;;;;;;;2.08;1.58;;;;;;;19.36;80.34;97963.66;4118579;28;20620;-59
2022/06/24 01:03:39;;;;;;;6.22;2.28;;;;;;;19.44;79.68;97968.44;4126806;28;20237;-59
2022/06/24 01:05:42;;;;;;;5.70;1.40;;;;;;;19.55;78.88;97964.22;4128098;28;20237;-59
2022/06/24 01:07:44;;;;;;;4.32;1.45;;;;;;;19.65;78.36;97964.75;4139748;28;20263;-59
2022/06/24 01:09:46;;;;;;;2.42;1.25;;;;;;;19.65;78.50;97963.94;4137619;28;20210;-59
2022/06/24 01:11:48;;;;;;;3.38;1.20;;;;;;;19.55;78.83;97953.13;4136007;28;20206;-59
2022/06/24 01:13:50;;;;;;;3.05;1.17;;;;;;;19.72;78.23;97959.53;4124059;28;20284;-59
2022/06/24 01:15:53;;;;;;;4.85;1.70;;;;;;;19.70;78.19;97949.91;4138744;28;20225;-60
2022/06/24 01:17:54;;;;;;;4.53;1.70;;;;;;;19.64;78.50;97952.00;4117153;28;21174;-60
2022/06/24 01:19:57;;;;;;;3.95;1.27;;;;;;;19.52;78.93;97959.34;4139241;28;20205;-59
2022/06/24 01:21:59;;;;;;;3.35;1.58;;;;;;;19.43;79.20;97959.28;4125698;28;20238;-58
2022/06/24 01:24:05;;;;;;;2.63;1.17;;;;;;;19.14;80.28;97956.22;4117983;28;20210;-59
2022/06/24 01:26:06;;;;;;;3.08;1.20;;;;;;;19.00;81.36;97952.72;4124430;28;20283;-59
2022/06/24 01:28:08;;;;;;;3.90;1.70;;;;;;;18.84;81.77;97967.28;4124231;28;20214;-59
2022/06/24 01:30:10;;;;;;;4.32;1.90;;;;;;;18.76;82.67;97970.78;4121309;28;20241;-58
2022/06/24 01:32:12;;;;;;;3.20;1.42;;;;;;;18.95;81.59;97971.41;4137198;28;20213;-59
2022/06/24 01:34:16;;;;;;;1.67;1.13;;;;;;;18.89;81.64;97961.59;4138376;28;20275;-59
2022/06/24 01:36:17;;;;;;;3.55;1.25;;;;;;;18.97;81.37;97955.28;4123418;28;20231;-58
2022/06/24 01:38:19;;;;;;;4.25;1.48;;;;;;;19.08;80.86;97954.69;4123708;28;20205;-59
2022/06/24 01:40:20;;;;;;;2.85;1.67;;;;;;;19.25;80.05;97962.31;4121525;28;20210;-59
2022/06/24 01:42:22;;;;;;;2.42;0.90;;;;;;;19.08;80.85;97964.97;4119619;28;20226;-58
2022/06/24 01:44:24;;;;;;;3.97;1.30;;;;;;;18.94;81.65;97965.06;4106346;28;20659;-59
2022/06/24 01:46:26;;;;;;;3.72;1.00;;;;;;;18.78;82.07;97965.78;4121510;28;20206;-59
2022/06/24 01:48:28;;;;;;;4.47;1.48;;;;;;;18.69;82.73;97962.94;4122535;28;20210;-59
2022/06/24 01:50:29;;;;;;;4.72;1.20;;;;;;;18.81;82.50;97959.59;4116762;28;20913;-60
2022/06/24 01:52:31;;;;;;;2.80;1.20;;;;;;;18.97;81.46;97958.06;4123472;28;20206;-59
2022/06/24 01:54:34;;;;;;;3.45;1.52;;;;;;;19.06;81.15;97956.16;4140144;28;20260;-59
2022/06/24 01:56:36;;;;;;;2.63;1.48;;;;;;;18.96;81.60;97945.31;4142444;28;20395;-59
2022/06/24 01:58:45;;;;;;;4.78;1.98;;;;;;;18.87;81.66;97936.13;4142581;28;20729;-59
2022/06/24 02:00:47;;;;;;;3.50;0.98;;;;;;;19.00;81.08;97935.22;4139959;28;20537;-59
2022/06/24 02:02:48;;;;;;;1.42;1.00;;;;;;;18.71;82.45;97932.13;4140175;28;20221;-59
2022/06/24 02:04:52;;;;;;;13.82;1.30;;;;;;;18.75;82.33;97928.41;4110771;28;20226;-59
2022/06/24 02:06:54;;;;;;;3.17;1.23;;;;;;;18.77;82.41;97920.59;4126772;28;20738;-59
2022/06/24 02:08:56;;;;;;;3.17;1.50;;;;;;;18.79;82.14;97920.28;4125826;28;20198;-59
2022/06/24 02:13:28;;;;;;;4.20;1.38;;;;;;;18.74;82.35;97909.31;4141038;28;20315;-59
2022/06/24 02:15:30;;;;;;;2.38;1.25;;;;;;;18.57;82.82;97904.47;4126336;28;20237;-58
2022/06/24 02:17:32;;;;;;;3.20;1.20;;;;;;;18.72;82.16;97904.06;4123738;28;20215;-59
2022/06/24 02:19:33;;;;;;;2.95;1.10;;;;;;;18.82;81.54;97898.28;4140748;28;20255;-59
2022/06/24 02:21:36;;;;;;;1.80;1.20;;;;;;;19.02;80.99;97899.66;4124967;28;20215;-59
2022/06/24 02:23:38;;;;;;;2.38;1.17;;;;;;;18.93;81.22;97890.50;4140309;28;20293;-59
2022/06/24 02:25:39;;;;;;;1.35;1.10;;;;;;;18.86;81.62;97890.13;4140038;28;20229;-59
2022/06/24 02:27:41;;;;;;;5.32;1.45;;;;;;;19.05;80.59;97893.50;4126201;28;20632;-59
2022/06/24 02:29:43;;;;;;;1.98;1.10;;;;;;;19.03;80.36;97890.22;4140831;28;20338;-58
2022/06/24 02:31:45;;;;;;;2.20;1.10;;;;;;;19.05;80.36;97893.50;4140552;28;20241;-58
2022/06/24 02:33:47;;;;;;;2.97;1.48;;;;;;;19.12;79.48;97886.34;4141346;28;20213;-58
2022/06/24 02:35:48;;;;;;;3.75;1.10;;;;;;;19.18;79.61;97881.47;4138608;28;20229;-57
2022/06/24 02:37:50;;;;;;;1.80;0.95;;;;;;;19.10;79.88;97879.47;4140144;28;20598;-58
2022/06/24 02:39:52;;;;;;;2.00;1.05;;;;;;;18.91;80.79;97876.16;4118762;28;20264;-59
2022/06/24 02:41:54;;;;;;;5.95;2.00;;;;;;;18.70;81.93;97863.94;4124145;28;20235;-57
2022/06/24 02:43:55;;;;;;;2.40;1.23;;;;;;;18.58;82.33;97863.75;4125326;28;20202;-60
2022/06/24 02:46:06;;;;;;;2.72;1.23;;;;;;;18.56;82.29;97864.03;4129359;28;20257;-59
2022/06/24 02:48:08;;;;;;;2.30;1.23;;;;;;;18.55;82.75;97856.88;4128731;28;20656;-59
2022/06/24 02:50:09;;;;;;;5.68;1.55;;;;;;;18.56;82.58;97857.69;4143437;28;20236;-59
2022/06/24 02:52:11;;;;;;;4.45;1.77;;;;;;;18.49;82.95;97857.31;4140067;28;20240;-58
2022/06/24 02:54:13;;;;;;;1.85;1.40;;;;;;;18.47;82.81;97856.81;4140524;28;20270;-59
2022/06/24 02:56:15;;;;;;;2.53;1.35;;;;;;;18.63;82.47;97856.09;4129689;28;20296;-59
2022/06/24 02:58:16;;;;;;;3.35;1.15;;;;;;;18.43;82.91;97859.41;4141105;28;20210;-59
2022/06/24 03:00:18;;;;;;;3.75;1.48;;;;;;;18.40;82.78;97853.69;4121095;28;20245;-59
2022/06/24 03:02:20;;;;;;;6.28;1.30;;;;;;;18.30;83.08;97846.44;4120137;28;20226;-60
2022/06/24 03:04:22;;;;;;;2.00;1.02;;;;;;;18.27;83.08;97849.00;4125819;28;20210;-59
2022/06/24 03:06:24;;;;;;;4.18;1.45;;;;;;;18.17;83.75;97844.53;4126542;28;20210;-59
2022/06/24 03:08:26;;;;;;;2.85;1.60;;;;;;;18.09;83.97;97847.22;4123232;28;20258;-59
2022/06/24 03:10:28;;;;;;;3.35;1.42;;;;;;;17.96;84.55;97848.09;4124350;28;20281;-59
2022/06/24 03:12:30;;;;;;;5.32;1.58;;;;;;;17.99;84.69;97842.75;4139365;28;20197;-60
2022/06/24 03:14:32;;;;;;;3.78;1.60;;;;;;;17.97;84.79;97845.03;4137914;28;20253;-60
2022/06/24 03:16:34;;;;;;;2.97;1.40;;;;;;;18.09;84.23;97850.00;4123389;28;20250;-59
2022/06/24 03:18:36;;;;;;;2.72;1.30;;;;;;;18.05;84.30;97849.00;4138179;28;20236;-59
2022/06/24 03:20:38;;;;;;;4.25;1.55;;;;;;;17.96;84.73;97842.56;4128231;28;20775;-59
2022/06/24 03:22:46;;;;;;;2.30;1.33;;;;;;;17.97;84.70;97845.03;4122899;28;20269;-59
2022/06/24 03:24:48;;;;;;;5.20;1.55;;;;;;;17.98;84.26;97845.84;4122952;28;20273;-59
2022/06/24 03:26:50;;;;;;;3.08;1.60;;;;;;;18.04;83.89;97850.13;4137925;28;20209;-60
2022/06/24 03:28:51;;;;;;;2.75;1.40;;;;;;;17.94;84.28;97839.28;4140089;28;20210;-59
2022/06/24 03:30:53;;;;;;;4.50;1.52;;;;;;;18.10;83.58;97844.16;4139158;28;20206;-60
2022/06/24 03:32:55;;;;;;;2.40;1.30;;;;;;;18.07;83.58;97839.25;4124477;28;20209;-60
2022/06/24 03:34:56;;;;;;;3.40;1.63;;;;;;;18.14;83.75;97839.63;4125558;28;20715;-60
2022/06/24 03:36:58;;;;;;;8.95;1.80;;;;;;;18.16;83.76;97844.84;4140844;28;20618;-59
2022/06/24 03:39:00;;;;;;;2.50;1.50;;;;;;;18.26;83.16;97848.16;4104050;28;20857;-59
2022/06/24 03:41:02;;;;;;;2.03;1.30;;;;;;;18.33;82.61;97842.22;4109065;28;20763;-59
2022/06/24 03:43:04;;;;;;;4.40;1.65;;;;;;;18.18;83.35;97845.34;4139496;28;20214;-59
2022/06/24 03:45:06;;;;;;;1.95;1.25;;;;;;;18.31;82.56;97850.84;4120466;28;20306;-59
2022/06/24 03:47:08;;;;;;;2.50;1.73;;;;;;;18.09;83.59;97847.22;4124572;28;20288;-59
2022/06/24 03:49:09;;;;;;;4.32;1.75;;;;;;;18.16;83.41;97859.50;4123302;28;20265;-59
2022/06/24 03:51:11;;;;;;;3.55;2.08;;;;;;;18.27;82.95;97843.44;4138017;28;20206;-58
2022/06/24 03:53:13;;;;;;;6.03;1.75;;;;;;;18.42;82.40;97843.91;4139201;28;20547;-59
2022/06/24 03:55:18;;;;;;;2.95;2.08;;;;;;;18.48;81.97;97844.59;4124354;28;20268;-59
2022/06/24 03:57:20;;;;;;;4.40;1.70;;;;;;;18.36;82.48;97844.34;4140078;28;20208;-59
2022/06/24 03:59:22;;;;;;;5.65;1.42;;;;;;;18.26;83.37;97847.38;4123416;28;20218;-59
2022/06/24 04:01:24;;;;;;;4.35;1.65;;;;;;;18.35;83.13;97851.03;4138691;28;20271;-59
2022/06/24 04:03:26;;;;;;;3.40;1.73;;;;;;;18.20;83.43;97848.63;4126138;28;20308;-59
2022/06/24 04:05:27;;;;;;;4.32;2.10;;;;;;;18.38;82.65;97847.66;4127082;28;20864;-59
2022/06/24 04:07:29;;;;;;;4.15;1.67;;;;;;;18.35;82.80;97845.50;4140133;28;20205;-59
2022/06/24 04:09:31;;;;;;;4.15;2.33;;;;;;;18.21;83.47;97853.03;4126170;28;20206;-59
2022/06/24 04:11:33;;;;;;;3.53;1.98;;;;;;;18.11;84.00;97842.22;4135452;28;20276;-59
2022/06/24 04:13:34;;;;;;;10.32;1.85;;;;;;;18.16;83.72;97847.59;4136724;28;20263;-59
2022/06/24 04:15:36;;;;;;;6.70;2.33;;;;;;;18.17;83.87;97849.22;4124224;28;20237;-59
2022/06/24 04:17:38;;;;;;;5.75;2.30;;;;;;;18.12;84.08;97852.16;4136938;28;20221;-59
2022/06/24 04:19:39;;;;;;;4.00;2.30;;;;;;;18.00;84.36;97854.66;4122442;28;20232;-59
2022/06/24 04:21:41;;;;;;;5.47;2.60;;;;;;;17.98;84.42;97848.63;4124698;28;20217;-59
2022/06/24 04:23:44;;;;;;;4.60;2.25;;;;;;;18.17;83.74;97852.00;4137452;28;20236;-59
2022/06/24 04:25:46;;;;;;;4.45;2.20;;;;;;;18.05;83.96;97851.78;4126856;28;20300;-59
2022/06/24 04:27:48;;;;;;;9.30;3.00;;;;;;;18.12;83.63;97857.69;4137258;28;20209;-59
2022/06/24 04:29:50;;;;;;;3.40;2.38;;;;;;;18.10;83.75;97854.41;4126300;28;20210;-59
2022/06/24 04:31:51;;;;;;;3.83;2.15;;;;;;;18.16;83.65;97853.13;4139915;28;20206;-59
2022/06/24 04:33:58;;;;;;;5.40;2.17;;;;;;;18.11;83.93;97862.41;4136517;28;20332;-58
2022/06/24 04:36:00;;;;;;;4.55;2.53;;;;;;;18.08;84.11;97862.22;4123560;28;20229;-59
2022/06/24 04:38:02;;;;;;;2.85;2.00;;;;;;;18.04;84.17;97859.25;4120725;28;20213;-59
2022/06/24 04:40:09;;;;;;;5.97;2.53;;;;;;;18.16;83.67;97853.13;4120622;28;20210;-59
2022/06/24 04:42:11;;;;;;;4.40;2.42;;;;;;;18.09;83.85;97858.31;4121741;28;20202;-59
2022/06/24 04:44:12;;;;;;;4.05;2.15;;;;;;;18.07;83.84;97863.34;4119376;28;20210;-59
2022/06/24 04:46:14;;;;;;;8.32;2.50;;;;;;;18.02;84.06;97857.91;4105606;28;20231;-59
2022/06/24 04:48:16;;;;;;;4.63;2.30;;;;;;;18.22;83.54;97862.97;4124042;28;20269;-59
2022/06/24 04:50:18;;;;;;;5.28;2.88;;;;;;;18.16;84.10;97867.00;4136672;28;20205;-60
2022/06/24 04:52:19;;;;;;;3.00;2.00;;;;;;;18.08;83.96;97867.75;4140949;28;20276;-59
2022/06/24 04:54:21;;;;;;;4.60;2.45;;;;;;;18.06;84.26;97864.47;4125254;28;20209;-59
2022/06/24 04:56:23;;;;;;;2.72;2.35;;;;;;;18.07;84.07;97868.88;4124505;28;20218;-59
2022/06/24 04:58:25;;;;;;;6.15;2.35;;;;;;;18.06;84.37;97865.28;4122038;28;20203;-59
2022/06/24 05:00:26;;;;;;;3.47;2.40;;;;;;;18.18;83.86;97867.50;4140635;28;20232;-61
2022/06/24 05:02:28;;;;;;;4.90;2.55;;;;;;;18.37;83.24;97865.38;4127776;28;20326;-60
2022/06/24 05:04:30;;;;;;;2.03;1.90;;;;;;;18.44;82.67;97869.34;4124149;28;20209;-60
2022/06/24 05:06:32;;;;;;;2.38;1.92;;;;;;;18.35;83.32;97875.97;4140781;28;20216;-59
2022/06/24 05:08:34;;;;;;;3.83;2.22;;;;;;;18.42;83.14;97873.56;4124055;28;20202;-60
2022/06/24 05:10:35;;;;;;;4.90;1.67;;;;;;;18.50;82.95;97876.41;4122594;28;21550;-60
2022/06/24 05:12:37;;;;;;;3.83;1.83;;;;;;;18.42;82.77;97879.09;4122630;28;20975;-60
2022/06/24 05:14:40;;;;;;;2.88;1.70;;;;;;;18.50;82.67;97881.94;4113991;28;20257;-60
2022/06/24 05:16:47;;;;;;;2.42;1.98;;;;;;;18.40;82.69;97881.38;4136800;28;20695;-59
2022/06/24 05:18:52;;;;;;;2.70;1.85;;;;;;;18.45;82.70;97872.94;4119536;28;20203;-59
2022/06/24 05:20:53;;;;;;;3.78;1.95;;;;;;;18.37;83.44;97884.75;4122313;28;20218;-59
2022/06/24 05:22:55;;;;;;;3.08;2.20;;;;;;;18.33;83.58;97881.00;4122558;28;20366;-60
2022/06/24 05:24:57;;;;;;;2.85;1.80;;;;;;;18.45;83.18;97881.25;4135293;28;20229;-59
2022/06/24 05:26:58;;;;;;;7.85;2.95;;;;;;;18.45;82.52;97878.50;4135831;28;20249;-60
2022/06/24 05:29:00;;;;;;;3.55;1.83;;;;;;;18.24;83.74;97882.88;4124214;28;20671;-60
2022/06/24 05:31:02;;;;;;;3.40;2.00;;;;;;;18.37;83.12;97882.00;4134395;28;20859;-59
2022/06/24 05:33:03;;;;;;;5.05;2.60;;;;;;;18.47;82.83;97887.28;4119970;28;20206;-60
2022/06/24 05:35:06;;;;;;;3.70;2.25;;;;;;;18.38;82.82;97889.19;4113839;28;20225;-60
2022/06/24 05:37:08;;;;;;;4.50;1.80;;;;;;;18.43;82.85;97892.66;4137710;28;20201;-60
2022/06/24 05:39:10;;;;;;;2.50;1.67;;;;;;;18.42;82.83;97881.88;4116271;28;20672;-60
2022/06/24 05:41:12;;;;;;;4.47;2.38;;;;;;;18.36;83.10;97883.97;4121017;28;20264;-60
2022/06/24 05:43:14;;;;;;;5.05;2.38;;;;;;;18.43;82.94;97886.28;4123289;28;20218;-60
2022/06/24 05:45:16;;;;;;;4.55;1.85;;;;;;;18.42;82.10;97890.19;4124131;28;20244;-60
2022/06/24 05:47:21;;;;;;;3.30;1.88;;;;;;;18.34;82.87;97888.19;4125090;28;20377;-60
2022/06/24 05:49:23;;;;;;;4.40;2.50;;;;;;;18.28;83.23;97883.88;4127078;28;20210;-60
2022/06/24 05:51:25;;;;;;;4.15;2.30;;;;;;;18.41;82.79;97883.00;4138238;28;20256;-60
2022/06/24 05:55:47;;;;;;;2.85;1.90;;;;;;;18.47;82.57;97884.53;4138000;28;20762;-60
2022/06/24 05:57:48;;;;;;;6.32;2.30;;;;;;;18.63;81.95;97880.22;4135767;28;20221;-60
2022/06/24 05:59:50;;;;;;;3.47;2.45;;;;;;;18.67;81.91;97882.06;4124445;28;20218;-60
2022/06/24 06:01:52;;;;;;;4.18;1.65;;;;;;;18.72;81.84;97878.31;4138180;28;20205;-60
2022/06/24 06:03:57;;;;;;;2.55;1.85;;;;;;;18.60;81.50;97881.69;4125160;28;20236;-60
2022/06/24 06:05:59;;;;;;;1.92;1.73;;;;;;;18.47;81.56;97881.75;4120502;28;20230;-60
2022/06/24 06:08:00;;;;;;;3.63;2.00;;;;;;;18.44;82.56;97890.72;4124032;28;20837;-60
2022/06/24 06:10:02;;;;;;;3.13;1.50;;;;;;;18.44;82.39;97882.41;4125554;28;20214;-60
2022/06/24 06:12:05;;;;;;;2.58;1.80;;;;;;;18.58;82.15;97883.94;4121349;28;20647;-60
2022/06/24 06:14:06;;;;;;;4.68;2.22;;;;;;;18.51;82.15;97880.00;4118516;28;20194;-60
2022/06/24 06:16:09;;;;;;;3.08;2.03;;;;;;;18.43;82.64;97881.56;4137294;28;20251;-60
2022/06/24 06:18:10;;;;;;;3.88;2.08;;;;;;;18.43;82.95;97891.81;4121229;28;20238;-60
2022/06/24 06:20:12;;;;;;;2.95;2.10;;;;;;;18.52;82.64;97887.97;4122803;28;20210;-61
2022/06/24 06:22:14;;;;;;;3.55;2.47;;;;;;;18.49;82.65;97890.56;4139742;28;20217;-60
2022/06/24 06:24:16;;;;;;;3.72;1.85;;;;;;;18.71;81.91;97890.56;4113260;28;20237;-60
2022/06/24 06:26:17;;;;;;;2.90;2.28;;;;;;;18.74;81.59;97887.97;4120926;28;20203;-60
2022/06/24 06:28:19;;;;;;;3.17;1.85;;;;;;;18.82;81.75;97889.13;4119426;28;20214;-60
2022/06/24 06:30:21;;;;;;;3.25;2.22;;;;;;;18.74;81.59;97887.97;4137382;28;20209;-60
2022/06/24 06:32:22;;;;;;;2.33;2.13;;;;;;;18.86;80.74;97890.13;4133988;28;20240;-60
2022/06/24 06:34:24;;;;;;;4.05;1.95;;;;;;;19.02;80.90;97883.84;4122615;28;20746;-60
2022/06/24 06:36:26;;;;;;;2.45;2.08;;;;;;;19.09;79.84;97884.22;4136158;28;20937;-60
2022/06/24 06:38:27;;;;;;;3.55;1.67;;;;;;;19.07;79.94;97885.66;4136381;28;20209;-60
2022/06/24 06:40:29;;;;;;;2.78;1.73;;;;;;;19.29;79.95;97888.38;4122834;28;20292;-60
2022/06/24 06:42:31;;;;;;;3.58;1.90;;;;;;;19.25;79.68;97895.75;4126293;28;20298;-60
2022/06/24 06:44:33;;;;;;;4.35;1.80;;;;;;;19.19;78.79;97897.78;4123894;28;20236;-60
2022/06/24 06:46:35;;;;;;;2.30;1.80;;;;;;;19.36;79.17;97894.28;4122105;28;20268;-60
2022/06/24 06:48:39;;;;;;;3.25;1.95;;;;;;;19.27;78.95;97890.69;4136033;28;20236;-60
2022/06/24 06:50:40;;;;;;;8.50;1.75;;;;;;;19.53;78.63;97889.63;4122261;28;20574;-59
2022/06/24 06:52:42;;;;;;;3.22;1.77;;;;;;;19.70;78.26;97891.59;4139030;28;20631;-60
2022/06/24 06:54:44;;;;;;;1.88;1.52;;;;;;;19.87;77.49;97891.63;4123905;28;20651;-60
2022/06/24 06:56:46;;;;;;;3.60;1.83;;;;;;;19.98;76.72;97890.97;4142122;28;20279;-60
2022/06/24 06:58:47;;;;;;;3.55;1.63;;;;;;;20.10;77.27;97893.16;4109158;28;20294;-60
2022/06/24 07:00:50;;;;;;;2.90;1.40;;;;;;;20.19;76.87;97899.53;4134848;28;20210;-60
2022/06/24 07:02:52;;;;;;;2.05;1.85;;;;;;;20.44;76.64;97893.16;4123619;28;20816;-60
2022/06/24 07:04:54;;;;;;;3.78;2.42;;;;;;;20.31;76.04;97902.47;4136955;28;20252;-61
2022/06/24 07:06:56;;;;;;;4.15;1.73;;;;;;;19.94;76.02;97900.31;4138064;28;20205;-61
2022/06/24 07:08:57;;;;;;;3.05;1.73;;;;;;;19.80;75.74;97897.69;4117033;28;20619;-61
2022/06/24 07:10:59;;;;;;;3.35;2.58;;;;;;;19.82;76.43;97897.34;4137428;28;20209;-59
2022/06/24 07:13:01;;;;;;;5.85;2.33;;;;;;;19.79;76.36;97889.66;4115964;28;20226;-60
2022/06/24 07:15:03;;;;;;;2.13;1.95;;;;;;;19.83;76.42;97883.13;4125208;28;20308;-60
2022/06/24 07:17:05;;;;;;;2.33;2.13;;;;;;;19.97;75.98;97888.56;4139410;28;20648;-60
2022/06/24 07:19:06;;;;;;;5.70;2.45;;;;;;;20.04;76.78;97888.88;4127433;28;20202;-60
2022/06/24 07:39:01;;;;;;;3.20;2.10;;;;;;;19.76;75.78;97898.63;4203928;27;20708;-60
2022/06/24 07:41:03;;;;;;;3.97;1.98;;;;;;;19.80;76.47;97899.63;4194507;28;20211;-59
2022/06/24 07:43:05;;;;;;;2.20;2.00;;;;;;;19.94;76.60;97905.84;4197906;28;20203;-59
2022/06/24 07:45:08;;;;;;;4.90;2.33;;;;;;;19.94;76.40;97897.53;4185324;28;20199;-58
2022/06/24 07:47:10;;;;;;;4.28;1.70;;;;;;;19.95;75.45;97901.94;4193686;28;20218;-59
2022/06/24 07:49:12;;;;;;;2.72;2.05;;;;;;;19.78;75.64;97896.38;4187639;28;20226;-60
2022/06/24 07:51:16;;;;;;;7.13;1.95;;;;;;;19.94;75.72;97897.53;4194540;28;20211;-61
2022/06/24 07:53:18;;;;;;;4.45;1.88;;;;;;;20.07;74.89;97888.25;4190438;28;20723;-60
2022/06/24 07:57:40;;;;;;;4.53;3.15;;;;;;;20.19;74.94;97877.31;4196891;28;20223;-60
2022/06/24 07:59:45;;;;;;;4.60;2.35;;;;;;;20.58;75.21;97877.09;4174626;28;21161;-60
2022/06/24 08:01:47;;;;;;;4.05;2.90;;;;;;;20.47;74.59;97881.38;4185351;28;20227;-60
2022/06/24 08:03:49;;;;;;;4.68;2.72;;;;;;;20.69;73.95;97886.72;4197462;28;20213;-61
2022/06/24 08:05:52;;;;;;;2.28;1.80;;;;;;;20.78;73.01;97895.88;4190861;28;20242;-59
2022/06/24 08:07:54;;;;;;;3.75;2.20;;;;;;;20.80;73.18;97888.84;4158260;28;20239;-61
2022/06/24 08:09:56;;;;;;;6.30;2.10;;;;;;;21.39;72.73;97900.91;4199606;28;20260;-61
2022/06/24 08:12:00;;;;;;;1.48;1.38;;;;;;;21.43;71.83;97899.13;4187814;28;20651;-61
2022/06/24 08:14:05;;;;;;;2.53;2.13;;;;;;;21.53;71.34;97898.72;4193590;28;20199;-62
2022/06/24 08:16:12;;;;;;;2.85;1.73;;;;;;;21.55;70.81;97891.66;4171665;28;20234;-61
2022/06/24 08:18:19;;;;;;;3.40;1.70;;;;;;;21.60;70.43;97899.00;4195467;28;20223;-60
2022/06/24 08:20:24;;;;;;;2.40;1.60;;;;;;;21.62;69.44;97886.38;4169051;28;20287;-62
2022/06/24 08:22:31;;;;;;;3.25;2.85;;;;;;;21.36;68.81;97898.78;4196057;28;20199;-60
2022/06/24 08:24:34;;;;;;;5.03;1.60;;;;;;;21.30;69.41;97891.81;4194147;28;20202;-60
2022/06/24 08:26:36;;;;;;;2.33;1.65;;;;;;;21.37;69.83;97886.53;4196998;28;20490;-60
2022/06/24 08:28:39;;;;;;;2.38;1.70;;;;;;;21.56;69.89;97884.09;4194146;28;20230;-59
2022/06/24 08:30:41;;;;;;;3.25;2.90;;;;;;;21.47;68.79;97889.75;4197923;28;20225;-61
2022/06/24 08:32:42;;;;;;;4.22;1.50;;;;;;;21.42;68.96;97883.53;4211656;28;20672;-60
2022/06/24 08:34:44;;;;;;;6.78;1.67;;;;;;;21.50;69.00;97893.84;4204301;28;20202;-60
2022/06/24 08:37:06;;;;;;;2.75;1.60;;;;;;;21.51;69.66;97892.69;4197544;28;20206;-60
2022/06/24 08:39:08;;;;;;;2.35;1.70;;;;;;;21.52;68.53;97888.75;4191688;28;20237;-60
2022/06/24 08:41:10;;;;;;;2.20;1.90;;;;;;;21.74;69.16;97885.69;4193129;28;20202;-59
2022/06/24 08:43:13;;;;;;;4.35;2.42;;;;;;;21.69;68.69;97888.66;4188981;28;20202;-61
2022/06/24 08:45:17;;;;;;;2.10;1.58;;;;;;;21.77;68.66;97893.38;4184098;28;20203;-60
2022/06/24 08:47:25;;;;;;;1.60;1.40;;;;;;;21.79;69.60;97891.06;4186215;28;20234;-59
2022/06/24 08:49:27;;;;;;;5.35;1.60;;;;;;;21.59;67.76;97886.25;4175024;28;20505;-60
2022/06/24 08:51:29;;;;;;;5.95;1.80;;;;;;;21.80;68.22;97881.53;4181904;28;20215;-58
2022/06/24 08:53:34;;;;;;;3.83;1.38;;;;;;;21.92;67.22;97896.38;4191176;28;20948;-60
2022/06/24 08:55:37;;;;;;;4.28;1.88;;;;;;;21.79;66.99;97886.31;4181746;28;20769;-59
2022/06/24 08:57:39;;;;;;;6.20;1.80;;;;;;;21.68;67.92;97887.84;4183464;28;20224;-60
2022/06/24 08:59:45;;;;;;;1.85;1.48;;;;;;;21.41;66.85;97879.13;4193272;28;20264;-60
2022/06/24 09:01:47;;;;;;;3.65;1.50;;;;;;;21.40;67.32;97877.50;4189996;28;20217;-60
2022/06/24 09:03:49;;;;;;;2.05;1.73;;;;;;;21.51;67.32;97875.97;4187584;28;20202;-60
2022/06/24 09:05:57;;;;;;;3.50;2.30;;;;;;;21.83;68.78;97883.69;4186676;28;20654;-60
2022/06/24 09:08:10;;;;;;;1.80;1.27;;;;;;;21.93;66.60;97874.91;4184252;28;20289;-60
2022/06/24 09:10:13;;;;;;;3.28;1.88;;;;;;;22.11;66.61;97884.78;4184974;28;20755;-60
2022/06/24 09:12:15;;;;;;;2.38;2.03;;;;;;;22.24;66.03;97872.53;4182427;28;20306;-60
2022/06/24 09:14:17;;;;;;;2.75;2.00;;;;;;;21.98;64.53;97883.06;4175759;28;20253;-59
2022/06/24 09:16:19;;;;;;;2.60;1.73;;;;;;;21.99;65.56;97881.91;4189317;28;20211;-60
2022/06/24 09:18:24;;;;;;;1.90;1.58;;;;;;;21.99;65.36;97879.13;4185324;28;20690;-59
2022/06/24 09:20:28;;;;;;;3.05;1.98;;;;;;;22.03;65.58;97882.88;4191751;28;20268;-60
2022/06/24 09:22:33;;;;;;;3.60;1.58;;;;;;;21.89;65.69;97873.94;4183762;28;20234;-60
2022/06/24 09:24:47;;;;;;;4.57;1.75;;;;;;;22.01;66.59;97877.63;4182504;28;20286;-60
2022/06/24 09:26:59;;;;;;;2.30;2.10;;;;;;;22.18;66.95;97871.09;4182784;28;20830;-60
2022/06/24 09:29:03;;;;;;;3.28;2.20;;;;;;;22.57;66.92;97863.06;4190015;28;20279;-60
2022/06/24 09:31:08;;;;;;;3.65;1.60;;;;;;;22.61;66.35;97874.34;4173743;28;20207;-60
2022/06/24 09:33:15;;;;;;;1.88;1.77;;;;;;;22.63;66.30;97860.88;4182100;28;20208;-61
2022/06/24 09:35:34;;;;;;;1.70;1.58;;;;;;;22.57;65.79;97856.69;4170716;28;20402;-61
2022/06/24 09:37:45;;;;;;;4.97;1.90;;;;;;;22.27;65.91;97860.69;4183326;28;20253;-61
2022/06/24 09:39:46;;;;;;;2.88;2.05;;;;;;;22.03;65.91;97857.78;4179379;28;20210;-61
2022/06/24 09:41:50;;;;;;;2.55;1.60;;;;;;;22.18;65.90;97854.38;4184310;28;20203;-60
2022/06/24 09:43:52;;;;;;;2.00;1.80;;;;;;;22.35;66.27;97859.78;4195152;28;20202;-61
2022/06/24 09:45:54;;;;;;;2.10;1.90;;;;;;;22.65;66.10;97858.56;4183111;28;20226;-61
2022/06/24 09:47:58;;;;;;;1.63;1.38;;;;;;;22.56;64.68;97855.84;4184329;28;20230;-62
2022/06/24 09:50:01;;;;;;;2.50;1.77;;;;;;;22.49;65.06;97860.34;4180877;28;20214;-61
2022/06/24 09:52:04;;;;;;;4.75;2.00;;;;;;;22.27;64.85;97858.72;4155210;28;20867;-61
2022/06/24 09:54:07;;;;;;;2.42;1.73;;;;;;;22.05;66.68;97856.28;4166693;28;20200;-50
2022/06/24 09:56:10;;;;;;;3.17;1.80;;;;;;;22.17;66.19;97863.91;4170080;28;20204;-50
2022/06/24 09:58:13;;;;;;;3.15;1.90;;;;;;;22.61;66.52;97850.06;4167741;28;20364;-50
2022/06/24 10:02:38;;;;;;;2.38;1.48;;;;;;;23.55;63.22;97851.72;4167034;28;20290;-51
2022/06/24 10:04:40;;;;;;;1.88;1.63;;;;;;;24.00;61.11;97861.59;4169814;28;20227;-51
2022/06/24 10:06:44;;;;;;;7.38;1.70;;;;;;;24.21;59.94;97851.06;4156582;28;20212;-50